sensor_id;sensor_type;location;lat;lon;timestamp;pressure;altitude;pressure_sealevel;temperature;humidity
7990;BME280;4040;42.848;23.034;2023-01-06T00:05:47;95327.47;;;5.75;100.00
7990;BME280;4040;42.848;23.034;2023-01-06T00:11:37;95336.41;;;5.63;100.00
7990;BME280;4040;42.848;23.034;2023-01-06T00:17:26;95336.06;;;5.42;100.00
7990;BME280;4040;42.848;23.034;2023-01-06T00:23:14;95343.66;;;5.40;100.00
7990;BME280;4040;42.848;23.034;2023-01-06T00:29:25;95360.41;;;5.37;100.00
7990;BME280;4040;42.848;23.034;2023-01-06T00:35:13;95372.94;;;5.56;100.00
7990;BME280;4040;42.848;23.034;2023-01-06T00:41:03;95384.16;;;5.65;100.00
7990;BME280;4040;42.848;23.034;2023-01-06T00:47:14;95393.13;;;5.76;100.00
7990;BME280;4040;42.848;23.034;2023-01-06T00:53:03;95395.31;;;5.89;100.00
7990;BME280;4040;42.848;23.034;2023-01-06T00:58:51;95394.78;;;5.80;100.00
7990;BME280;4040;42.848;23.034;2023-01-06T01:04:41;95391.78;;;5.85;100.00
7990;BME280;4040;42.848;23.034;2023-01-06T01:10:30;95385.72;;;5.88;100.00
7990;BME280;4040;42.848;23.034;2023-01-06T01:20:22;95391.38;;;5.83;100.00
7990;BME280;4040;42.848;23.034;2023-01-06T01:26:10;95392.44;;;5.79;100.00
7990;BME280;4040;42.848;23.034;2023-01-06T01:31:59;95379.00;;;5.75;100.00
7990;BME280;4040;42.848;23.034;2023-01-06T01:37:50;95381.09;;;5.85;100.00
7990;BME280;4040;42.848;23.034;2023-01-06T01:43:43;95394.47;;;6.08;100.00
7990;BME280;4040;42.848;23.034;2023-01-06T01:49:34;95385.97;;;6.02;100.00
7990;BME280;4040;42.848;23.034;2023-01-06T01:55:26;95389.00;;;6.01;100.00
7990;BME280;4040;42.848;23.034;2023-01-06T02:01:16;95393.63;;;6.04;100.00
7990;BME280;4040;42.848;23.034;2023-01-06T02:07:05;95401.00;;;6.10;100.00
7990;BME280;4040;42.848;23.034;2023-01-06T02:12:57;95396.75;;;6.09;100.00
7990;BME280;4040;42.848;23.034;2023-01-06T02:23:38;95388.50;;;5.73;100.00
7990;BME280;4040;42.848;23.034;2023-01-06T02:29:57;95396.97;;;5.78;100.00
7990;BME280;4040;42.848;23.034;2023-01-06T02:35:56;95382.16;;;6.03;100.00
7990;BME280;4040;42.848;23.034;2023-01-06T02:41:54;95370.41;;;5.85;100.00
7990;BME280;4040;42.848;23.034;2023-01-06T02:47:56;95369.06;;;5.95;100.00
7990;BME280;4040;42.848;23.034;2023-01-06T02:53:55;95360.13;;;6.10;100.00
7990;BME280;4040;42.848;23.034;2023-01-06T02:59:52;95370.44;;;6.37;100.00
7990;BME280;4040;42.848;23.034;2023-01-06T03:05:45;95370.31;;;6.27;100.00
7990;BME280;4040;42.848;23.034;2023-01-06T03:11:39;95404.28;;;6.49;100.00
7990;BME280;4040;42.848;23.034;2023-01-06T03:17:29;95395.03;;;6.20;100.00
7990;BME280;4040;42.848;23.034;2023-01-06T03:23:18;95385.13;;;5.98;100.00
7990;BME280;4040;42.848;23.034;2023-01-06T03:29:11;95392.34;;;5.75;100.00
7990;BME280;4040;42.848;23.034;2023-01-06T03:35:18;95386.38;;;6.04;100.00
7990;BME280;4040;42.848;23.034;2023-01-06T03:41:18;95390.25;;;5.84;100.00
7990;BME280;4040;42.848;23.034;2023-01-06T03:47:14;95356.94;;;5.37;100.00
7990;BME280;4040;42.848;23.034;2023-01-06T03:53:16;95366.03;;;5.32;100.00
7990;BME280;4040;42.848;23.034;2023-01-06T03:59:11;95360.44;;;5.18;100.00
7990;BME280;4040;42.848;23.034;2023-01-06T04:05:09;95373.44;;;5.01;100.00
7990;BME280;4040;42.848;23.034;2023-01-06T04:10:58;95386.28;;;4.95;100.00
7990;BME280;4040;42.848;23.034;2023-01-06T04:16:47;95411.56;;;5.01;100.00
7990;BME280;4040;42.848;23.034;2023-01-06T04:22:37;95432.72;;;4.91;100.00
7990;BME280;4040;42.848;23.034;2023-01-06T04:28:25;95432.91;;;4.82;100.00
7990;BME280;4040;42.848;23.034;2023-01-06T04:34:14;95425.81;;;4.71;100.00
7990;BME280;4040;42.848;23.034;2023-01-06T04:40:06;95422.13;;;4.60;100.00
7990;BME280;4040;42.848;23.034;2023-01-06T04:45:57;95426.53;;;4.53;100.00
7990;BME280;4040;42.848;23.034;2023-01-06T04:51:46;95416.38;;;4.43;100.00
7990;BME280;4040;42.848;23.034;2023-01-06T04:57:36;95418.19;;;4.54;100.00
7990;BME280;4040;42.848;23.034;2023-01-06T05:03:24;95410.03;;;4.32;100.00
7990;BME280;4040;42.848;23.034;2023-01-06T05:09:13;95433.63;;;4.30;100.00
7990;BME280;4040;42.848;23.034;2023-01-06T05:15:05;95439.47;;;4.20;100.00
7990;BME280;4040;42.848;23.034;2023-01-06T05:25:06;95434.34;;;3.96;100.00
7990;BME280;4040;42.848;23.034;2023-01-06T05:30:59;95472.16;;;3.86;100.00
7990;BME280;4040;42.848;23.034;2023-01-06T05:36:48;95469.06;;;3.84;100.00
7990;BME280;4040;42.848;23.034;2023-01-06T05:42:37;95457.94;;;3.66;100.00
7990;BME280;4040;42.848;23.034;2023-01-06T05:48:27;95473.53;;;4.11;100.00
7990;BME280;4040;42.848;23.034;2023-01-06T05:54:16;95487.63;;;4.27;100.00
7990;BME280;4040;42.848;23.034;2023-01-06T06:00:06;95491.03;;;4.74;100.00
7990;BME280;4040;42.848;23.034;2023-01-06T06:06:01;95489.16;;;5.27;100.00
7990;BME280;4040;42.848;23.034;2023-01-06T06:11:52;95489.28;;;5.34;100.00
7990;BME280;4040;42.848;23.034;2023-01-06T06:17:41;95488.88;;;5.51;100.00
7990;BME280;4040;42.848;23.034;2023-01-06T06:27:57;95484.25;;;5.48;100.00
7990;BME280;4040;42.848;23.034;2023-01-06T06:33:49;95490.81;;;5.92;100.00
7990;BME280;4040;42.848;23.034;2023-01-06T06:39:38;95515.44;;;6.24;100.00
7990;BME280;4040;42.848;23.034;2023-01-06T06:45:28;95516.47;;;6.38;100.00
7990;BME280;4040;42.848;23.034;2023-01-06T06:51:19;95528.38;;;6.67;100.00
7990;BME280;4040;42.848;23.034;2023-01-06T06:57:08;95503.94;;;6.68;100.00
7990;BME280;4040;42.848;23.034;2023-01-06T07:02:58;95523.72;;;7.12;100.00
7990;BME280;4040;42.848;23.034;2023-01-06T07:08:47;95519.84;;;7.06;100.00
7990;BME280;4040;42.848;23.034;2023-01-06T07:14:36;95505.66;;;8.77;100.00
7990;BME280;4040;42.848;23.034;2023-01-06T07:20:26;95506.84;;;13.99;86.89
7990;BME280;4040;42.848;23.034;2023-01-06T07:30:37;95540.75;;;13.37;74.62
7990;BME280;4040;42.848;23.034;2023-01-06T07:36:27;95530.41;;;17.70;53.05
7990;BME280;4040;42.848;23.034;2023-01-06T07:42:15;95545.47;;;16.43;52.22
7990;BME280;4040;42.848;23.034;2023-01-06T07:48:04;95545.66;;;17.52;51.13
7990;BME280;4040;42.848;23.034;2023-01-06T07:53:55;95507.94;;;18.35;46.75
7990;BME280;4040;42.848;23.034;2023-01-06T07:59:43;95541.66;;;15.98;51.68
7990;BME280;4040;42.848;23.034;2023-01-06T08:05:32;95524.63;;;14.60;54.12
7990;BME280;4040;42.848;23.034;2023-01-06T08:11:22;95555.84;;;13.75;58.34
7990;BME280;4040;42.848;23.034;2023-01-06T08:17:10;95579.56;;;11.48;68.91
7990;BME280;4040;42.848;23.034;2023-01-06T08:22:59;95586.50;;;10.65;86.46
7990;BME280;4040;42.848;23.034;2023-01-06T08:33:11;95560.25;;;11.85;71.68
7990;BME280;4040;42.848;23.034;2023-01-06T08:39:01;95568.03;;;10.74;79.86
7990;BME280;4040;42.848;23.034;2023-01-06T08:44:50;95570.75;;;9.72;97.25
7990;BME280;4040;42.848;23.034;2023-01-06T08:50:40;95576.38;;;10.17;91.79
7990;BME280;4040;42.848;23.034;2023-01-06T08:56:30;95564.94;;;13.14;65.68
7990;BME280;4040;42.848;23.034;2023-01-06T09:02:19;95535.81;;;13.32;64.47
7990;BME280;4040;42.848;23.034;2023-01-06T09:08:09;95548.22;;;15.13;54.69
7990;BME280;4040;42.848;23.034;2023-01-06T09:13:58;95562.72;;;14.50;55.21
7990;BME280;4040;42.848;23.034;2023-01-06T09:19:46;95579.59;;;15.14;54.34
7990;BME280;4040;42.848;23.034;2023-01-06T09:25:36;95575.13;;;14.47;54.87
7990;BME280;4040;42.848;23.034;2023-01-06T09:35:47;95572.97;;;15.41;53.72
7990;BME280;4040;42.848;23.034;2023-01-06T09:42:04;95554.91;;;15.96;51.11
7990;BME280;4040;42.848;23.034;2023-01-06T09:47:58;95531.16;;;16.00;48.87
7990;BME280;4040;42.848;23.034;2023-01-06T09:53:53;95530.19;;;15.91;49.95
7990;BME280;4040;42.848;23.034;2023-01-06T09:59:48;95519.34;;;14.50;50.96
7990;BME280;4040;42.848;23.034;2023-01-06T10:05:45;95518.44;;;15.09;49.80
7990;BME280;4040;42.848;23.034;2023-01-06T10:11:48;95522.59;;;16.92;47.03
7990;BME280;4040;42.848;23.034;2023-01-06T10:17:52;95507.13;;;17.05;46.07
7990;BME280;4040;42.848;23.034;2023-01-06T10:23:56;95520.41;;;16.68;46.24
7990;BME280;4040;42.848;23.034;2023-01-06T10:29:47;95517.31;;;17.49;45.12
7990;BME280;4040;42.848;23.034;2023-01-06T10:35:39;95532.88;;;16.69;45.48
7990;BME280;4040;42.848;23.034;2023-01-06T10:41:37;95522.94;;;17.26;44.99
7990;BME280;4040;42.848;23.034;2023-01-06T10:47:29;95505.47;;;18.66;42.70
7990;BME280;4040;42.848;23.034;2023-01-06T10:53:20;95512.59;;;14.35;49.45
7990;BME280;4040;42.848;23.034;2023-01-06T10:59:10;95499.63;;;16.77;45.68
7990;BME280;4040;42.848;23.034;2023-01-06T11:05:00;95500.88;;;15.82;46.96
7990;BME280;4040;42.848;23.034;2023-01-06T11:11:13;95495.41;;;14.15;51.80
7990;BME280;4040;42.848;23.034;2023-01-06T11:17:05;95478.00;;;15.60;48.38
7990;BME280;4040;42.848;23.034;2023-01-06T11:23:11;95478.97;;;15.89;47.58
7990;BME280;4040;42.848;23.034;2023-01-06T11:29:16;95477.88;;;14.76;48.57
7990;BME280;4040;42.848;23.034;2023-01-06T11:35:06;95478.19;;;16.08;46.44
7990;BME280;4040;42.848;23.034;2023-01-06T11:40:55;95469.84;;;16.54;44.95
7990;BME280;4040;42.848;23.034;2023-01-06T11:46:48;95490.97;;;15.72;46.56
7990;BME280;4040;42.848;23.034;2023-01-06T11:52:38;95494.06;;;16.49;44.99
7990;BME280;4040;42.848;23.034;2023-01-06T11:58:47;95482.50;;;15.24;46.83
7990;BME280;4040;42.848;23.034;2023-01-06T12:04:42;95486.50;;;14.71;48.44
7990;BME280;4040;42.848;23.034;2023-01-06T12:10:35;95497.28;;;13.54;50.66
7990;BME280;4040;42.848;23.034;2023-01-06T12:16:46;95488.78;;;12.10;53.84
7990;BME280;4040;42.848;23.034;2023-01-06T12:22:57;95455.22;;;12.08;53.57
7990;BME280;4040;42.848;23.034;2023-01-06T12:28:49;95491.81;;;11.12;57.35
7990;BME280;4040;42.848;23.034;2023-01-06T12:34:50;95487.19;;;10.88;59.77
7990;BME280;4040;42.848;23.034;2023-01-06T12:40:46;95484.88;;;11.04;60.58
7990;BME280;4040;42.848;23.034;2023-01-06T12:46:40;95508.72;;;11.16;61.92
7990;BME280;4040;42.848;23.034;2023-01-06T12:52:34;95505.69;;;10.93;63.31
7990;BME280;4040;42.848;23.034;2023-01-06T12:58:32;95497.94;;;10.25;66.12
7990;BME280;4040;42.848;23.034;2023-01-06T13:10:45;95511.69;;;9.99;69.76
7990;BME280;4040;42.848;23.034;2023-01-06T13:16:41;95508.53;;;9.77;73.83
7990;BME280;4040;42.848;23.034;2023-01-06T13:22:42;95500.13;;;9.99;72.74
7990;BME280;4040;42.848;23.034;2023-01-06T13:28:40;95499.31;;;9.85;73.93
7990;BME280;4040;42.848;23.034;2023-01-06T13:34:48;95509.38;;;9.98;72.83
7990;BME280;4040;42.848;23.034;2023-01-06T13:40:40;95508.66;;;10.04;73.53
7990;BME280;4040;42.848;23.034;2023-01-06T13:46:32;95520.97;;;10.12;73.94
7990;BME280;4040;42.848;23.034;2023-01-06T13:52:25;95523.25;;;10.03;73.49
7990;BME280;4040;42.848;23.034;2023-01-06T13:58:34;95524.06;;;10.18;73.01
7990;BME280;4040;42.848;23.034;2023-01-06T14:04:46;95523.66;;;10.09;74.21
7990;BME280;4040;42.848;23.034;2023-01-06T14:10:38;95530.88;;;9.88;76.46
7990;BME280;4040;42.848;23.034;2023-01-06T14:16:39;95528.53;;;9.76;75.98
7990;BME280;4040;42.848;23.034;2023-01-06T14:22:28;95533.06;;;9.65;77.22
7990;BME280;4040;42.848;23.034;2023-01-06T14:28:25;95529.13;;;9.45;81.63
7990;BME280;4040;42.848;23.034;2023-01-06T14:34:17;95536.72;;;9.29;84.23
7990;BME280;4040;42.848;23.034;2023-01-06T14:40:16;95534.28;;;9.10;88.05
7990;BME280;4040;42.848;23.034;2023-01-06T14:46:14;95545.72;;;9.00;88.87
7990;BME280;4040;42.848;23.034;2023-01-06T14:52:09;95535.47;;;8.65;91.87
7990;BME280;4040;42.848;23.034;2023-01-06T14:57:59;95553.09;;;8.63;93.45
7990;BME280;4040;42.848;23.034;2023-01-06T15:03:55;95565.09;;;8.36;98.34
7990;BME280;4040;42.848;23.034;2023-01-06T15:09:46;95565.66;;;8.15;100.00
7990;BME280;4040;42.848;23.034;2023-01-06T15:15:35;95573.81;;;7.93;100.00
7990;BME280;4040;42.848;23.034;2023-01-06T15:21:26;95575.00;;;7.66;100.00
7990;BME280;4040;42.848;23.034;2023-01-06T15:27:16;95581.53;;;7.39;100.00
7990;BME280;4040;42.848;23.034;2023-01-06T15:33:08;95590.47;;;7.24;100.00
7990;BME280;4040;42.848;23.034;2023-01-06T15:39:02;95587.41;;;7.22;100.00
7990;BME280;4040;42.848;23.034;2023-01-06T15:44:56;95592.66;;;7.15;100.00
7990;BME280;4040;42.848;23.034;2023-01-06T15:50:45;95576.38;;;7.01;100.00
7990;BME280;4040;42.848;23.034;2023-01-06T15:56:35;95606.94;;;7.23;100.00
7990;BME280;4040;42.848;23.034;2023-01-06T16:02:27;95606.88;;;7.45;100.00
7990;BME280;4040;42.848;23.034;2023-01-06T16:08:20;95591.75;;;7.59;100.00
7990;BME280;4040;42.848;23.034;2023-01-06T16:14:26;95604.13;;;7.16;100.00
7990;BME280;4040;42.848;23.034;2023-01-06T16:20:22;95604.84;;;6.64;100.00
7990;BME280;4040;42.848;23.034;2023-01-06T16:26:14;95611.78;;;6.46;100.00
7990;BME280;4040;42.848;23.034;2023-01-06T16:32:26;95613.06;;;6.33;100.00
7990;BME280;4040;42.848;23.034;2023-01-06T16:38:15;95616.44;;;6.30;100.00
7990;BME280;4040;42.848;23.034;2023-01-06T16:44:04;95599.81;;;6.40;100.00
7990;BME280;4040;42.848;23.034;2023-01-06T16:49:53;95616.44;;;6.30;100.00
7990;BME280;4040;42.848;23.034;2023-01-06T16:55:43;95618.13;;;6.19;100.00
7990;BME280;4040;42.848;23.034;2023-01-06T17:01:31;95619.94;;;6.53;100.00
7990;BME280;4040;42.848;23.034;2023-01-06T17:07:24;95626.84;;;6.54;100.00
7990;BME280;4040;42.848;23.034;2023-01-06T17:13:14;95638.56;;;6.27;100.00
7990;BME280;4040;42.848;23.034;2023-01-06T17:19:23;95637.31;;;6.02;100.00
7990;BME280;4040;42.848;23.034;2023-01-06T17:25:14;95643.56;;;5.75;100.00
7990;BME280;4040;42.848;23.034;2023-01-06T17:31:08;95639.53;;;5.47;100.00
7990;BME280;4040;42.848;23.034;2023-01-06T17:37:20;95649.09;;;5.48;100.00
7990;BME280;4040;42.848;23.034;2023-01-06T17:43:23;95649.72;;;5.41;100.00
7990;BME280;4040;42.848;23.034;2023-01-06T17:49:32;95662.59;;;5.05;100.00
7990;BME280;4040;42.848;23.034;2023-01-06T17:55:31;95653.28;;;4.99;100.00
7990;BME280;4040;42.848;23.034;2023-01-06T18:01:34;95648.28;;;4.97;100.00
7990;BME280;4040;42.848;23.034;2023-01-06T18:07:22;95662.81;;;4.84;100.00
7990;BME280;4040;42.848;23.034;2023-01-06T18:13:15;95666.28;;;4.70;100.00
7990;BME280;4040;42.848;23.034;2023-01-06T18:19:21;95674.56;;;4.53;100.00
7990;BME280;4040;42.848;23.034;2023-01-06T18:25:15;95667.56;;;4.33;100.00
7990;BME280;4040;42.848;23.034;2023-01-06T18:31:14;95672.78;;;4.14;100.00
7990;BME280;4040;42.848;23.034;2023-01-06T18:40:26;95666.44;;;4.18;100.00
7990;BME280;4040;42.848;23.034;2023-01-06T18:46:16;95659.44;;;4.14;100.00
7990;BME280;4040;42.848;23.034;2023-01-06T18:52:24;95665.00;;;4.09;100.00
7990;BME280;4040;42.848;23.034;2023-01-06T18:58:43;95669.31;;;3.86;100.00
7990;BME280;4040;42.848;23.034;2023-01-06T19:04:34;95677.16;;;3.55;100.00
7990;BME280;4040;42.848;23.034;2023-01-06T19:10:25;95684.06;;;3.20;100.00
7990;BME280;4040;42.848;23.034;2023-01-06T19:16:39;95682.03;;;2.93;100.00
7990;BME280;4040;42.848;23.034;2023-01-06T19:22:30;95683.16;;;2.92;100.00
7990;BME280;4040;42.848;23.034;2023-01-06T19:28:21;95643.44;;;2.63;100.00
7990;BME280;4040;42.848;23.034;2023-01-06T19:34:14;95676.09;;;3.08;100.00
7990;BME280;4040;42.848;23.034;2023-01-06T19:44:30;95674.97;;;3.21;100.00
7990;BME280;4040;42.848;23.034;2023-01-06T19:50:22;95689.38;;;3.20;100.00
7990;BME280;4040;42.848;23.034;2023-01-06T19:56:15;95675.16;;;3.52;100.00
7990;BME280;4040;42.848;23.034;2023-01-06T20:02:19;95686.13;;;3.50;100.00
7990;BME280;4040;42.848;23.034;2023-01-06T20:08:12;95682.03;;;3.53;100.00
7990;BME280;4040;42.848;23.034;2023-01-06T20:14:01;95685.38;;;3.38;100.00
7990;BME280;4040;42.848;23.034;2023-01-06T20:19:49;95692.81;;;3.08;100.00
7990;BME280;4040;42.848;23.034;2023-01-06T20:25:39;95694.03;;;2.87;100.00
7990;BME280;4040;42.848;23.034;2023-01-06T20:31:28;95695.50;;;2.64;100.00
7990;BME280;4040;42.848;23.034;2023-01-06T20:37:17;95697.84;;;2.33;100.00
7990;BME280;4040;42.848;23.034;2023-01-06T20:47:29;95693.34;;;2.13;100.00
7990;BME280;4040;42.848;23.034;2023-01-06T20:53:17;95684.97;;;2.23;100.00
7990;BME280;4040;42.848;23.034;2023-01-06T20:59:06;95682.22;;;2.20;100.00
7990;BME280;4040;42.848;23.034;2023-01-06T21:04:56;95673.91;;;2.21;100.00
7990;BME280;4040;42.848;23.034;2023-01-06T21:10:45;95668.25;;;2.11;100.00
7990;BME280;4040;42.848;23.034;2023-01-06T21:16:33;95676.22;;;1.90;100.00
7990;BME280;4040;42.848;23.034;2023-01-06T21:22:24;95685.44;;;2.25;100.00
7990;BME280;4040;42.848;23.034;2023-01-06T21:28:12;95681.56;;;2.67;100.00
7990;BME280;4040;42.848;23.034;2023-01-06T21:34:01;95689.16;;;2.89;100.00
7990;BME280;4040;42.848;23.034;2023-01-06T21:39:51;95686.59;;;2.92;100.00
7990;BME280;4040;42.848;23.034;2023-01-06T21:50:01;95699.09;;;2.80;100.00
7990;BME280;4040;42.848;23.034;2023-01-06T21:55:52;95708.59;;;2.57;100.00
7990;BME280;4040;42.848;23.034;2023-01-06T22:01:41;95716.03;;;2.31;100.00
7990;BME280;4040;42.848;23.034;2023-01-06T22:07:30;95707.56;;;2.17;100.00
7990;BME280;4040;42.848;23.034;2023-01-06T22:13:21;95698.97;;;2.00;100.00
7990;BME280;4040;42.848;23.034;2023-01-06T22:19:12;95704.53;;;1.86;100.00
7990;BME280;4040;42.848;23.034;2023-01-06T22:25:02;95699.59;;;1.76;100.00
7990;BME280;4040;42.848;23.034;2023-01-06T22:30:54;95709.84;;;1.86;100.00
7990;BME280;4040;42.848;23.034;2023-01-06T22:36:43;95693.41;;;1.72;100.00
7990;BME280;4040;42.848;23.034;2023-01-06T22:42:31;95710.84;;;1.32;100.00
7990;BME280;4040;42.848;23.034;2023-01-06T22:52:43;95688.66;;;1.28;100.00
7990;BME280;4040;42.848;23.034;2023-01-06T22:58:35;95683.50;;;1.32;100.00
7990;BME280;4040;42.848;23.034;2023-01-06T23:08:29;95684.31;;;1.53;100.00
7990;BME280;4040;42.848;23.034;2023-01-06T23:14:18;95682.28;;;1.00;100.00
7990;BME280;4040;42.848;23.034;2023-01-06T23:20:08;95686.03;;;0.99;100.00
7990;BME280;4040;42.848;23.034;2023-01-06T23:26:02;95691.59;;;0.69;100.00
7990;BME280;4040;42.848;23.034;2023-01-06T23:31:50;95666.91;;;0.39;100.00
7990;BME280;4040;42.848;23.034;2023-01-06T23:37:40;95687.47;;;0.42;100.00
7990;BME280;4040;42.848;23.034;2023-01-06T23:43:32;95684.69;;;0.30;100.00
7990;BME280;4040;42.848;23.034;2023-01-06T23:49:21;95677.38;;;0.19;100.00
7990;BME280;4040;42.848;23.034;2023-01-06T23:55:10;95682.94;;;0.51;100.00
